Anderson, Alaska
Current Conditions -  °F | °C
As of 2:53 PM on Friday 21 Nov 2014 (Local Time) from PANN Reporting Station
Clear Clear  
Wind Chill:   Ceiling: Unl
Heat Index: 14°   Visibility: 10mi
Dew Point:   Wind: 6mph
Humidity: 71%   Direction: 10°N
Pressure: 29.23"   Gusts: NA
Location:  64.34°N, 149.19°W
Report Text: PANN 212353Z AUTO 01005KT 10SM CLR M10/M14 A2923 RMK AO2 SLP909 T11001144 11056 21100 58009 TSNO
Loading
Personal Weather Stations






























Interactive Weather Map New forecast layout! Learn more

10-Day Weather Forecast

Advertisements
Track Severe Weather on mobile